createdAt,value
2019-05-09T00:01:06.550Z,100210.20
2019-05-09T00:03:37.971Z,100204.64
2019-05-09T00:06:09.338Z,100205.27
2019-05-09T00:08:43.937Z,100208.64
2019-05-09T00:11:17.303Z,100210.33
2019-05-09T00:13:48.642Z,100206.34
2019-05-09T00:16:19.924Z,100222.69
2019-05-09T00:18:51.210Z,100224.87
2019-05-09T00:21:27.347Z,100228.14
2019-05-09T00:23:58.734Z,100231.88
2019-05-09T00:26:30.159Z,100247.84
2019-05-09T00:29:15.164Z,100249.66
2019-05-09T00:31:48.158Z,100241.30
2019-05-09T00:34:23.944Z,100240.22
2019-05-09T00:36:55.432Z,100233.56
2019-05-09T00:39:26.991Z,100237.55
2019-05-09T00:41:58.553Z,100233.20
2019-05-09T00:44:33.770Z,100234.41
2019-05-09T00:47:10.123Z,100246.50
2019-05-09T00:49:43.472Z,100245.16
2019-05-09T00:52:14.994Z,100242.27
2019-05-09T00:54:47.237Z,100232.34
2019-05-09T00:57:33.982Z,100228.91
2019-05-09T01:00:09.196Z,100225.40
2019-05-09T01:02:40.648Z,100221.64
2019-05-09T01:05:13.240Z,100217.97
2019-05-09T01:07:44.705Z,100213.48
2019-05-09T01:10:17.439Z,100204.64
2019-05-09T01:12:48.891Z,100199.96
2019-05-09T01:15:20.609Z,100201.25
2019-05-09T01:17:53.615Z,100202.09
2019-05-09T01:20:25.113Z,100201.73
2019-05-09T01:22:56.437Z,100198.71
2019-05-09T01:25:27.860Z,100196.87
2019-05-09T01:27:59.453Z,100195.78
2019-05-09T01:30:35.702Z,100199.66
2019-05-09T01:33:17.791Z,100194.34
2019-05-09T01:35:49.157Z,100196.73
2019-05-09T01:38:23.221Z,100195.98
2019-05-09T01:40:54.423Z,100179.08
2019-05-09T01:43:25.789Z,100179.68
2019-05-09T01:45:57.120Z,100182.09
2019-05-09T01:48:28.438Z,100183.06
2019-05-09T01:50:59.730Z,100188.25
2019-05-09T01:53:33.451Z,100193.95
2019-05-09T01:56:06.051Z,100189.80
2019-05-09T01:58:37.418Z,100185.54
2019-05-09T02:01:10.346Z,100181.80
2019-05-09T02:03:43.667Z,100187.74
2019-05-09T02:06:14.940Z,100184.45
2019-05-09T02:08:46.466Z,100186.14
2019-05-09T02:11:17.829Z,100192.33
2019-05-09T02:13:49.089Z,100184.73
2019-05-09T02:16:38.260Z,100186.66
2019-05-09T02:19:13.459Z,100175.79
2019-05-09T02:21:44.437Z,100173.74
2019-05-09T02:24:15.815Z,100176.13
2019-05-09T02:26:47.170Z,100171.56
2019-05-09T02:29:18.519Z,100175.06
2019-05-09T02:31:50.060Z,100167.95
2019-05-09T02:34:24.525Z,100167.31
2019-05-09T02:36:54.452Z,100166.73
2019-05-09T02:39:25.677Z,100166.83
2019-05-09T02:42:05.045Z,100173.26
2019-05-09T02:44:30.162Z,100169.97
2019-05-09T02:47:03.240Z,100167.05
2019-05-09T02:49:34.698Z,100166.53
2019-05-09T02:52:08.748Z,100166.65
2019-05-09T02:54:40.611Z,100165.81
2019-05-09T02:57:12.056Z,100169.72
2019-05-09T02:59:50.915Z,100167.47
2019-05-09T03:02:23.919Z,100173.58
2019-05-09T03:04:57.914Z,100171.94
2019-05-09T03:07:48.644Z,100163.89
2019-05-09T03:10:22.406Z,100166.79
2019-05-09T03:12:53.753Z,100164.89
2019-05-09T03:15:25.300Z,100163.98
2019-05-09T03:17:59.837Z,100156.78
2019-05-09T03:20:39.274Z,100152.47
2019-05-09T03:23:10.856Z,100148.55
2019-05-09T03:25:43.121Z,100141.09
2019-05-09T03:28:18.396Z,100142.20
2019-05-09T03:30:51.945Z,100135.59
2019-05-09T03:33:23.697Z,100132.19
2019-05-09T03:35:57.300Z,100125.91
2019-05-09T03:38:28.485Z,100128.08
2019-05-09T03:40:59.777Z,100130.16
2019-05-09T03:43:31.061Z,100129.80
2019-05-09T03:46:04.043Z,100133.55
2019-05-09T03:48:42.858Z,100128.98
2019-05-09T03:51:14.297Z,100126.91
2019-05-09T03:53:45.645Z,100125.78
2019-05-09T03:56:18.611Z,100119.03
2019-05-09T03:58:50.205Z,100128.42
2019-05-09T04:01:24.175Z,100125.71
2019-05-09T04:03:55.633Z,100138.27
2019-05-09T04:06:28.209Z,100135.64
2019-05-09T04:09:04.292Z,100139.62
2019-05-09T04:11:38.087Z,100136.59
2019-05-09T04:14:17.896Z,100145.28
2019-05-09T04:16:50.194Z,100133.70
2019-05-09T04:19:21.522Z,100134.19
2019-05-09T04:21:52.838Z,100134.40
2019-05-09T04:24:27.800Z,100142.00
2019-05-09T04:27:00.450Z,100131.29
2019-05-09T04:29:31.787Z,100131.05
2019-05-09T04:32:05.183Z,100131.87
2019-05-09T04:34:38.063Z,100136.69
2019-05-09T04:37:12.132Z,100139.34
2019-05-09T04:39:42.997Z,100141.61
2019-05-09T04:42:18.441Z,100133.64
2019-05-09T04:44:58.885Z,100137.62
2019-05-09T04:47:33.870Z,100140.44
2019-05-09T04:50:02.941Z,100140.52
2019-05-09T04:52:34.430Z,100143.58
2019-05-09T04:55:07.882Z,100143.78
2019-05-09T04:57:40.771Z,100138.83
2019-05-09T05:00:13.891Z,100138.11
2019-05-09T05:02:48.444Z,100136.09
2019-05-09T05:05:22.011Z,100132.92
2019-05-09T05:07:53.845Z,100142.33
2019-05-09T05:10:27.216Z,100144.90
2019-05-09T05:12:58.175Z,100144.63
2019-05-09T05:15:29.497Z,100140.08
2019-05-09T05:18:00.861Z,100139.92
2019-05-09T05:20:32.602Z,100137.42
2019-05-09T05:23:08.106Z,100138.35
2019-05-09T05:25:38.661Z,100141.37
2019-05-09T05:28:10.005Z,100132.65
2019-05-09T05:30:41.336Z,100133.16
2019-05-09T05:33:30.679Z,100142.94
2019-05-09T05:36:09.444Z,100142.75
2019-05-09T05:38:41.390Z,100137.80
2019-05-09T05:41:28.328Z,100141.06
2019-05-09T05:43:59.311Z,100145.77
2019-05-09T05:46:32.393Z,100143.98
2019-05-09T05:49:03.831Z,100142.11
2019-05-09T05:51:49.393Z,100150.38
2019-05-09T05:54:23.140Z,100148.05
2019-05-09T05:56:54.466Z,100144.08
2019-05-09T05:59:28.344Z,100137.98
2019-05-09T06:01:59.050Z,100130.05
2019-05-09T06:04:30.385Z,100127.04
2019-05-09T06:07:01.849Z,100132.11
2019-05-09T06:09:33.469Z,100128.70
2019-05-09T06:12:04.917Z,100133.89
2019-05-09T06:14:37.771Z,100130.39
2019-05-09T06:17:11.593Z,100132.35
2019-05-09T06:19:42.980Z,100126.80
2019-05-09T06:22:15.567Z,100121.28
2019-05-09T06:24:47.826Z,100115.58
2019-05-09T06:27:19.545Z,100114.38
2019-05-09T06:29:50.919Z,100122.58
2019-05-09T06:32:22.219Z,100126.77
2019-05-09T06:34:53.681Z,100126.13
2019-05-09T06:37:27.527Z,100114.73
2019-05-09T06:39:58.506Z,100128.27
2019-05-09T06:42:30.781Z,100132.35
2019-05-09T06:45:03.766Z,100133.31
2019-05-09T06:47:38.134Z,100141.48
2019-05-09T06:50:11.390Z,100133.44
2019-05-09T06:52:47.944Z,100144.98
2019-05-09T06:55:19.369Z,100145.59
2019-05-09T06:57:50.820Z,100140.61
2019-05-09T07:00:34.166Z,100139.08
2019-05-09T07:03:18.335Z,100139.31
2019-05-09T07:05:53.654Z,100137.75
2019-05-09T07:08:31.508Z,100137.05
2019-05-09T07:11:02.893Z,100131.92
2019-05-09T07:13:34.349Z,100128.52
2019-05-09T07:16:05.858Z,100126.88
2019-05-09T07:18:38.296Z,100118.18
2019-05-09T07:21:11.572Z,100121.80
2019-05-09T07:23:43.847Z,100121.69
2019-05-09T07:26:17.703Z,100123.38
2019-05-09T07:28:50.220Z,100125.58
2019-05-09T07:31:28.409Z,100128.34
2019-05-09T07:34:03.640Z,100130.64
2019-05-09T07:36:35.076Z,100135.34
2019-05-09T07:39:08.715Z,100137.54
2019-05-09T07:41:41.953Z,100135.84
2019-05-09T07:44:13.452Z,100140.56
2019-05-09T07:46:52.602Z,100136.31
2019-05-09T07:49:24.055Z,100144.89
2019-05-09T07:51:59.043Z,100132.95
2019-05-09T07:54:29.825Z,100125.10
2019-05-09T07:57:01.378Z,100119.09
2019-05-09T07:59:32.822Z,100133.87
2019-05-09T08:02:04.390Z,100134.22
2019-05-09T08:04:38.610Z,100139.32
2019-05-09T08:07:10.397Z,100140.99
2019-05-09T08:09:42.072Z,100141.60
2019-05-09T08:12:13.773Z,100147.05
2019-05-09T08:14:55.334Z,100142.09
2019-05-09T08:17:23.560Z,100140.55
2019-05-09T08:19:58.318Z,100138.98
2019-05-09T08:22:32.283Z,100141.28
2019-05-09T08:25:02.444Z,100147.44
2019-05-09T08:27:33.980Z,100147.92
2019-05-09T08:30:08.038Z,100146.65
2019-05-09T08:32:39.661Z,100144.08
2019-05-09T08:35:11.211Z,100139.50
2019-05-09T08:37:44.148Z,100136.61
2019-05-09T08:40:18.348Z,100137.11
2019-05-09T08:42:51.492Z,100136.86
2019-05-09T08:45:27.590Z,100140.37
2019-05-09T08:47:57.740Z,100139.61
2019-05-09T08:50:39.131Z,100138.41
2019-05-09T08:53:10.692Z,100140.22
2019-05-09T08:55:43.997Z,100146.90
2019-05-09T08:58:19.661Z,100144.24
2019-05-09T09:00:50.111Z,100142.27
2019-05-09T09:03:21.541Z,100140.45
2019-05-09T09:05:53.170Z,100138.34
2019-05-09T09:08:25.275Z,100130.85
2019-05-09T09:10:57.797Z,100133.17
2019-05-09T09:13:29.501Z,100139.94
2019-05-09T09:16:14.454Z,100150.55
2019-05-09T09:18:34.097Z,100148.87
2019-05-09T09:21:07.844Z,100155.78
2019-05-09T09:23:46.605Z,100149.00
2019-05-09T09:26:12.140Z,100158.55
2019-05-09T09:28:43.528Z,100158.32
2019-05-09T09:31:15.011Z,100167.16
2019-05-09T09:33:48.061Z,100171.09
2019-05-09T09:36:20.014Z,100169.76
2019-05-09T09:38:51.888Z,100156.81
2019-05-09T09:41:23.327Z,100159.11
2019-05-09T09:43:54.910Z,100151.25
2019-05-09T09:46:28.374Z,100153.80
2019-05-09T09:48:59.507Z,100149.34
2019-05-09T09:51:30.939Z,100154.55
2019-05-09T09:54:02.209Z,100155.41
2019-05-09T09:56:33.577Z,100160.34
2019-05-09T09:59:21.790Z,100168.70
2019-05-09T10:01:58.464Z,100169.77
2019-05-09T10:04:31.108Z,100159.88
2019-05-09T10:07:02.595Z,100159.63
2019-05-09T10:09:34.015Z,100159.48
2019-05-09T10:12:20.808Z,100159.39
2019-05-09T10:14:57.611Z,100158.44
2019-05-09T10:17:35.798Z,100161.20
2019-05-09T10:20:18.149Z,100164.47
2019-05-09T10:22:58.712Z,100173.77
2019-05-09T10:25:22.859Z,100173.17
2019-05-09T10:27:54.433Z,100168.93
2019-05-09T10:30:34.331Z,100173.79
2019-05-09T10:33:05.884Z,100174.28
2019-05-09T10:35:39.208Z,100174.18
2019-05-09T10:38:11.255Z,100180.91
2019-05-09T10:40:42.565Z,100181.45
2019-05-09T10:43:34.723Z,100180.25
2019-05-09T10:45:57.847Z,100174.27
2019-05-09T10:48:29.851Z,100175.48
2019-05-09T10:51:05.488Z,100172.08
2019-05-09T10:53:35.742Z,100171.73
2019-05-09T10:56:08.925Z,100171.23
2019-05-09T10:58:40.639Z,100183.84
2019-05-09T11:01:12.072Z,100185.16
2019-05-09T11:03:43.507Z,100182.47
2019-05-09T11:06:18.313Z,100194.81
2019-05-09T11:08:49.228Z,100187.45
2019-05-09T11:11:20.554Z,100193.84
2019-05-09T11:13:51.936Z,100191.08
2019-05-09T11:16:23.240Z,100187.67
2019-05-09T11:18:54.558Z,100194.94
2019-05-09T11:21:28.555Z,100189.87
2019-05-09T11:23:59.007Z,100185.02
2019-05-09T11:26:30.464Z,100181.48
2019-05-09T11:29:01.899Z,100188.51
2019-05-09T11:31:33.225Z,100183.55
2019-05-09T11:34:08.605Z,100185.39
2019-05-09T11:36:39.042Z,100176.58
2019-05-09T11:39:11.089Z,100179.20
2019-05-09T11:41:42.450Z,100177.52
2019-05-09T11:44:14.034Z,100181.39
2019-05-09T11:46:47.726Z,100183.19
2019-05-09T11:49:18.648Z,100184.88
2019-05-09T11:51:49.919Z,100185.87
2019-05-09T11:54:21.267Z,100190.07
2019-05-09T11:56:52.632Z,100196.75
2019-05-09T11:59:24.044Z,100188.59
2019-05-09T12:01:55.435Z,100182.55
2019-05-09T12:04:28.178Z,100180.59
2019-05-09T12:07:00.751Z,100183.35
2019-05-09T12:09:32.080Z,100187.19
2019-05-09T12:12:03.586Z,100193.11
2019-05-09T12:14:34.951Z,100191.78
2019-05-09T12:17:08.404Z,100190.16
2019-05-09T12:19:39.393Z,100169.66
2019-05-09T12:22:10.876Z,100164.30
2019-05-09T12:24:42.358Z,100173.83
2019-05-09T12:27:13.815Z,100183.85
2019-05-09T12:29:45.055Z,100189.55
2019-05-09T12:32:18.705Z,100175.79
2019-05-09T12:34:49.531Z,100169.59
2019-05-09T12:37:20.956Z,100176.63
2019-05-09T12:39:52.299Z,100187.39
2019-05-09T12:42:23.743Z,100204.51
2019-05-09T12:44:58.755Z,100198.78
2019-05-09T12:47:29.407Z,100193.69
2019-05-09T12:50:02.892Z,100183.45
2019-05-09T12:52:33.969Z,100171.27
2019-05-09T12:55:08.167Z,100172.02
2019-05-09T12:57:39.523Z,100184.20
2019-05-09T13:00:11.252Z,100202.05
2019-05-09T13:02:42.654Z,100202.77
2019-05-09T13:05:14.153Z,100209.74
2019-05-09T13:07:47.894Z,100203.31
2019-05-09T13:10:19.570Z,100218.65
2019-05-09T13:12:51.411Z,100217.44
2019-05-09T13:15:24.628Z,100219.25
2019-05-09T13:17:57.964Z,100207.75
2019-05-09T13:20:29.140Z,100196.89
2019-05-09T13:23:00.504Z,100203.83
2019-05-09T13:25:31.951Z,100211.42
2019-05-09T13:28:04.420Z,100225.10
2019-05-09T13:30:37.953Z,100218.65
2019-05-09T13:33:10.981Z,100233.92
2019-05-09T13:35:42.715Z,100229.41
2019-05-09T13:38:14.160Z,100244.58
2019-05-09T13:40:53.016Z,100259.09
2019-05-09T13:43:20.585Z,100261.24
2019-05-09T13:45:52.202Z,100264.53
2019-05-09T13:48:32.612Z,100270.39
2019-05-09T13:50:57.793Z,100276.97
2019-05-09T13:53:30.381Z,100279.75
2019-05-09T13:56:01.766Z,100285.88
2019-05-09T13:58:33.228Z,100280.14
2019-05-09T14:01:07.640Z,100277.87
2019-05-09T14:03:38.898Z,100284.86
2019-05-09T14:06:10.515Z,100289.28
2019-05-09T14:08:41.897Z,100291.98
2019-05-09T14:11:13.593Z,100299.45
2019-05-09T14:13:44.988Z,100294.30
2019-05-09T14:16:21.815Z,100299.05
2019-05-09T14:18:49.704Z,100291.36
2019-05-09T14:21:24.600Z,100293.17
2019-05-09T14:24:10.005Z,100278.59
2019-05-09T14:26:28.186Z,100278.55
2019-05-09T14:28:59.700Z,100273.71
2019-05-09T14:31:32.522Z,100286.52
2019-05-09T14:34:04.100Z,100287.90
2019-05-09T14:36:39.123Z,100289.80
2019-05-09T14:39:09.534Z,100292.59
2019-05-09T14:41:41.507Z,100295.36
2019-05-09T14:44:12.781Z,100291.26
2019-05-09T14:46:48.099Z,100287.24
2019-05-09T14:49:18.747Z,100295.78
2019-05-09T14:51:50.305Z,100297.98
2019-05-09T14:54:21.806Z,100296.09
2019-05-09T14:56:53.486Z,100292.89
2019-05-09T14:59:24.842Z,100291.16
2019-05-09T15:01:59.148Z,100293.73
2019-05-09T15:04:29.732Z,100300.98
2019-05-09T15:07:01.317Z,100307.73
2019-05-09T15:09:32.658Z,100305.75
2019-05-09T15:12:04.050Z,100310.25
2019-05-09T15:14:35.521Z,100307.11
2019-05-09T15:17:08.801Z,100314.39
2019-05-09T15:19:55.337Z,100317.67
2019-05-09T15:22:14.701Z,100322.08
2019-05-09T15:24:47.737Z,100325.01
2019-05-09T15:27:19.336Z,100335.91
2019-05-09T15:29:51.169Z,100337.05
2019-05-09T15:32:22.558Z,100338.05
2019-05-09T15:34:57.556Z,100338.36
2019-05-09T15:37:28.847Z,100341.06
2019-05-09T15:40:00.205Z,100347.27
2019-05-09T15:42:31.712Z,100344.61
2019-05-09T15:45:03.193Z,100353.38
2019-05-09T15:47:38.040Z,100353.22
2019-05-09T15:50:18.780Z,100347.86
2019-05-09T15:52:42.867Z,100351.05
2019-05-09T15:55:14.309Z,100355.95
2019-05-09T15:57:45.789Z,100357.36
2019-05-09T16:00:19.019Z,100366.27
2019-05-09T16:02:50.434Z,100373.16
2019-05-09T16:05:23.532Z,100376.73
2019-05-09T16:07:55.850Z,100378.83
2019-05-09T16:10:28.358Z,100386.48
2019-05-09T16:12:59.874Z,100374.08
2019-05-09T16:15:31.333Z,100386.95
2019-05-09T16:18:02.630Z,100381.22
2019-05-09T16:20:37.349Z,100381.54
2019-05-09T16:23:08.385Z,100379.65
2019-05-09T16:25:39.929Z,100382.30
2019-05-09T16:28:13.533Z,100389.72
2019-05-09T16:30:44.951Z,100395.81
2019-05-09T16:33:18.256Z,100394.14
2019-05-09T16:35:52.581Z,100394.06
2019-05-09T16:38:22.424Z,100406.43
2019-05-09T16:40:53.783Z,100402.88
2019-05-09T16:43:25.230Z,100411.60
2019-05-09T16:45:58.128Z,100409.01
2019-05-09T16:48:30.670Z,100416.59
2019-05-09T16:51:04.341Z,100420.45
2019-05-09T16:53:36.104Z,100423.67
2019-05-09T16:56:08.198Z,100427.03
2019-05-09T16:58:39.812Z,100422.32
2019-05-09T17:01:12.794Z,100435.20
2019-05-09T17:03:44.378Z,100426.78
2019-05-09T17:06:18.265Z,100435.11
2019-05-09T17:08:48.892Z,100441.83
2019-05-09T17:11:20.258Z,100447.73
2019-05-09T17:13:51.786Z,100445.04
2019-05-09T17:16:23.132Z,100444.17
2019-05-09T17:18:54.583Z,100454.08
2019-05-09T17:21:42.923Z,100456.08
2019-05-09T17:24:19.187Z,100461.92
2019-05-09T17:26:50.637Z,100458.17
2019-05-09T17:29:22.099Z,100460.95
2019-05-09T17:31:53.440Z,100470.06
2019-05-09T17:34:24.986Z,100482.13
2019-05-09T17:36:56.436Z,100485.23
2019-05-09T17:39:27.997Z,100485.46
2019-05-09T17:41:59.548Z,100490.95
2019-05-09T17:44:30.961Z,100484.09
2019-05-09T17:47:05.222Z,100491.47
2019-05-09T17:49:37.563Z,100496.19
2019-05-09T17:52:10.053Z,100500.80
2019-05-09T17:54:42.500Z,100504.22
2019-05-09T17:57:14.976Z,100505.73
2019-05-09T17:59:48.823Z,100512.17
2019-05-09T18:02:19.544Z,100515.94
2019-05-09T18:04:50.911Z,100515.20
2019-05-09T18:07:22.709Z,100522.42
2019-05-09T18:09:54.155Z,100517.59
2019-05-09T18:12:27.588Z,100516.89
2019-05-09T18:14:58.764Z,100515.75
2019-05-09T18:17:32.391Z,100516.70
2019-05-09T18:20:05.046Z,100511.84
2019-05-09T18:22:36.441Z,100524.27
2019-05-09T18:25:10.327Z,100521.77
2019-05-09T18:27:41.796Z,100507.96
2019-05-09T18:30:13.903Z,100513.77
2019-05-09T18:32:52.942Z,100511.62
2019-05-09T18:35:27.825Z,100507.24
2019-05-09T18:38:04.744Z,100509.52
2019-05-09T18:40:36.225Z,100511.22
2019-05-09T18:43:07.966Z,100514.61
2019-05-09T18:45:39.434Z,100517.84
2019-05-09T18:48:12.675Z,100522.80
2019-05-09T18:50:46.152Z,100518.45
2019-05-09T18:53:18.570Z,100523.48
2019-05-09T18:55:49.932Z,100522.47
2019-05-09T18:58:25.345Z,100524.53
2019-05-09T19:00:58.422Z,100521.15
2019-05-09T19:03:30.319Z,100518.69
2019-05-09T19:06:01.987Z,100520.22
2019-05-09T19:08:34.630Z,100511.90
2019-05-09T19:11:06.137Z,100513.97
2019-05-09T19:13:40.032Z,100514.83
2019-05-09T19:16:16.481Z,100517.20
2019-05-09T19:18:54.667Z,100509.81
2019-05-09T19:21:30.022Z,100517.28
2019-05-09T19:24:01.590Z,100517.00
2019-05-09T19:26:35.891Z,100516.62
2019-05-09T19:29:08.585Z,100509.42
2019-05-09T19:31:40.251Z,100509.64
2019-05-09T19:34:11.799Z,100499.80
2019-05-09T19:36:44.015Z,100506.05
2019-05-09T19:39:19.879Z,100502.45
2019-05-09T19:41:51.361Z,100505.02
2019-05-09T19:44:22.812Z,100516.08
2019-05-09T19:46:54.151Z,100523.55
2019-05-09T19:49:36.300Z,100526.47
2019-05-09T19:52:07.689Z,100523.34
2019-05-09T19:54:39.157Z,100522.22
2019-05-09T19:57:10.541Z,100526.47
2019-05-09T19:59:41.861Z,100536.69
2019-05-09T20:02:13.247Z,100531.76
2019-05-09T20:04:45.055Z,100521.09
2019-05-09T20:07:16.491Z,100524.77
2019-05-09T20:09:51.685Z,100531.29
2019-05-09T20:12:31.541Z,100542.09
2019-05-09T20:15:02.836Z,100541.81
2019-05-09T20:17:35.329Z,100550.52
2019-05-09T20:20:07.842Z,100558.25
2019-05-09T20:22:52.011Z,100559.20
2019-05-09T20:25:12.557Z,100549.94
2019-05-09T20:27:44.158Z,100562.64
2019-05-09T20:30:20.921Z,100561.21
2019-05-09T20:32:52.697Z,100565.93
2019-05-09T20:35:24.221Z,100564.88
2019-05-09T20:37:55.929Z,100559.11
2019-05-09T20:40:31.282Z,100565.28
2019-05-09T20:43:02.867Z,100565.66
2019-05-09T20:45:35.192Z,100570.38
2019-05-09T20:48:06.843Z,100569.29
2019-05-09T20:50:38.540Z,100567.45
2019-05-09T20:53:10.278Z,100566.17
2019-05-09T20:55:41.902Z,100569.19
2019-05-09T20:58:13.480Z,100573.03
2019-05-09T21:00:45.131Z,100567.12
2019-05-09T21:03:16.669Z,100567.12
2019-05-09T21:05:48.371Z,100567.49
2019-05-09T21:08:19.843Z,100570.00
2019-05-09T21:10:52.405Z,100569.16
2019-05-09T21:13:23.951Z,100571.30
2019-05-09T21:15:55.737Z,100572.31
2019-05-09T21:18:27.492Z,100570.99
2019-05-09T21:21:00.346Z,100576.25
2019-05-09T21:23:33.288Z,100583.34
2019-05-09T21:26:04.913Z,100583.25
2019-05-09T21:28:36.575Z,100592.52
2019-05-09T21:31:09.430Z,100587.02
2019-05-09T21:33:42.124Z,100587.97
2019-05-09T21:36:13.544Z,100587.13
2019-05-09T21:38:44.923Z,100594.59
2019-05-09T21:41:16.373Z,100591.94
2019-05-09T21:43:47.767Z,100596.87
2019-05-09T21:46:19.217Z,100610.49
2019-05-09T21:48:50.809Z,100604.44
2019-05-09T21:51:24.433Z,100604.61
2019-05-09T21:53:55.818Z,100595.55
2019-05-09T21:56:27.199Z,100595.17
2019-05-09T21:58:58.575Z,100584.67
2019-05-09T22:01:31.295Z,100594.80
2019-05-09T22:04:03.371Z,100585.31
2019-05-09T22:06:34.842Z,100585.18
2019-05-09T22:09:09.044Z,100585.48
2019-05-09T22:11:41.614Z,100595.50
2019-05-09T22:14:12.882Z,100595.39
2019-05-09T22:16:44.555Z,100586.50
2019-05-09T22:19:15.910Z,100588.56
2019-05-09T22:21:48.353Z,100585.48
2019-05-09T22:24:19.787Z,100593.42
2019-05-09T22:26:52.115Z,100594.34
2019-05-09T22:29:23.483Z,100597.77
2019-05-09T22:31:54.900Z,100597.56
2019-05-09T22:34:26.250Z,100606.83
2019-05-09T22:36:59.109Z,100608.52
2019-05-09T22:39:30.493Z,100610.05
2019-05-09T22:42:02.222Z,100612.58
2019-05-09T22:44:33.564Z,100623.55
2019-05-09T22:47:04.921Z,100624.98
2019-05-09T22:49:36.493Z,100625.93
2019-05-09T22:52:07.796Z,100624.23
2019-05-09T22:54:39.176Z,100620.65
2019-05-09T22:57:10.547Z,100633.33
2019-05-09T22:59:41.985Z,100623.96
2019-05-09T23:02:13.347Z,100633.16
2019-05-09T23:04:44.687Z,100626.70
2019-05-09T23:07:16.051Z,100626.32
2019-05-09T23:09:47.446Z,100634.00
2019-05-09T23:12:18.963Z,100632.00
2019-05-09T23:14:51.884Z,100630.92
2019-05-09T23:17:23.204Z,100626.23
2019-05-09T23:19:54.716Z,100625.62
2019-05-09T23:22:27.606Z,100621.41
2019-05-09T23:24:58.926Z,100620.94
2019-05-09T23:27:30.251Z,100611.87
2019-05-09T23:30:03.595Z,100608.75
2019-05-09T23:32:37.633Z,100609.13
2019-05-09T23:35:09.224Z,100607.59
2019-05-09T23:37:41.583Z,100605.52
2019-05-09T23:40:12.983Z,100603.34
2019-05-09T23:42:44.345Z,100600.59
2019-05-09T23:45:15.712Z,100595.88
2019-05-09T23:47:47.054Z,100597.72
2019-05-09T23:50:18.397Z,100588.30
2019-05-09T23:52:49.705Z,100596.25
2019-05-09T23:55:38.913Z,100589.63
2019-05-09T23:58:28.149Z,100593.70
